sensor_id;sensor_type;location;lat;lon;timestamp;P1;durP1;ratioP1;P2;durP2;ratioP2
42124;SDS011;27787;44.594;11.046;2023-02-21T00:02:13;63.35;;;28.40;;
42124;SDS011;27787;44.594;11.046;2023-02-21T00:05:16;73.40;;;29.10;;
42124;SDS011;27787;44.594;11.046;2023-02-21T00:08:19;67.95;;;29.13;;
42124;SDS011;27787;44.594;11.046;2023-02-21T00:11:21;69.05;;;29.98;;
42124;SDS011;27787;44.594;11.046;2023-02-21T00:14:24;66.15;;;29.45;;
42124;SDS011;27787;44.594;11.046;2023-02-21T00:17:28;74.03;;;29.00;;
42124;SDS011;27787;44.594;11.046;2023-02-21T00:20:30;69.78;;;29.50;;
42124;SDS011;27787;44.594;11.046;2023-02-21T00:23:34;68.45;;;29.05;;
42124;SDS011;27787;44.594;11.046;2023-02-21T00:26:37;64.53;;;27.40;;
42124;SDS011;27787;44.594;11.046;2023-02-21T00:29:40;59.92;;;28.17;;
42124;SDS011;27787;44.594;11.046;2023-02-21T00:32:43;59.33;;;28.08;;
42124;SDS011;27787;44.594;11.046;2023-02-21T00:35:46;64.53;;;28.10;;
42124;SDS011;27787;44.594;11.046;2023-02-21T00:38:49;60.13;;;26.40;;
42124;SDS011;27787;44.594;11.046;2023-02-21T00:41:52;59.13;;;26.83;;
42124;SDS011;27787;44.594;11.046;2023-02-21T00:44:55;61.00;;;28.48;;
42124;SDS011;27787;44.594;11.046;2023-02-21T00:47:58;69.47;;;27.35;;
42124;SDS011;27787;44.594;11.046;2023-02-21T00:51:01;70.03;;;30.45;;
42124;SDS011;27787;44.594;11.046;2023-02-21T00:54:04;64.03;;;28.40;;
42124;SDS011;27787;44.594;11.046;2023-02-21T00:57:07;68.30;;;28.88;;
42124;SDS011;27787;44.594;11.046;2023-02-21T01:00:17;67.97;;;28.27;;
42124;SDS011;27787;44.594;11.046;2023-02-21T01:03:21;74.55;;;29.02;;
42124;SDS011;27787;44.594;11.046;2023-02-21T01:06:24;65.95;;;28.13;;
42124;SDS011;27787;44.594;11.046;2023-02-21T01:09:27;62.38;;;27.30;;
42124;SDS011;27787;44.594;11.046;2023-02-21T01:12:30;69.97;;;28.42;;
42124;SDS011;27787;44.594;11.046;2023-02-21T01:15:34;64.80;;;28.50;;
42124;SDS011;27787;44.594;11.046;2023-02-21T01:18:37;64.57;;;27.95;;
42124;SDS011;27787;44.594;11.046;2023-02-21T01:21:41;60.53;;;28.27;;
42124;SDS011;27787;44.594;11.046;2023-02-21T01:24:44;68.20;;;27.10;;
42124;SDS011;27787;44.594;11.046;2023-02-21T01:27:48;60.67;;;26.75;;
42124;SDS011;27787;44.594;11.046;2023-02-21T01:30:53;54.78;;;25.52;;
42124;SDS011;27787;44.594;11.046;2023-02-21T01:33:55;65.38;;;29.90;;
42124;SDS011;27787;44.594;11.046;2023-02-21T01:36:58;68.53;;;29.38;;
42124;SDS011;27787;44.594;11.046;2023-02-21T01:40:01;72.72;;;27.77;;
42124;SDS011;27787;44.594;11.046;2023-02-21T01:43:12;64.50;;;28.50;;
42124;SDS011;27787;44.594;11.046;2023-02-21T01:46:20;70.40;;;30.02;;
42124;SDS011;27787;44.594;11.046;2023-02-21T01:49:22;76.75;;;33.20;;
42124;SDS011;27787;44.594;11.046;2023-02-21T01:52:25;83.25;;;32.88;;
42124;SDS011;27787;44.594;11.046;2023-02-21T01:55:28;80.75;;;32.58;;
42124;SDS011;27787;44.594;11.046;2023-02-21T01:58:31;80.53;;;33.28;;
42124;SDS011;27787;44.594;11.046;2023-02-21T02:01:40;83.78;;;33.95;;
42124;SDS011;27787;44.594;11.046;2023-02-21T02:04:48;79.40;;;31.92;;
42124;SDS011;27787;44.594;11.046;2023-02-21T02:07:54;70.75;;;31.20;;
42124;SDS011;27787;44.594;11.046;2023-02-21T02:11:03;70.78;;;30.77;;
42124;SDS011;27787;44.594;11.046;2023-02-21T02:21:06;72.28;;;30.20;;
42124;SDS011;27787;44.594;11.046;2023-02-21T02:36:43;67.20;;;27.67;;
42124;SDS011;27787;44.594;11.046;2023-02-21T02:45:16;60.83;;;26.08;;
42124;SDS011;27787;44.594;11.046;2023-02-21T02:48:27;63.60;;;26.60;;
42124;SDS011;27787;44.594;11.046;2023-02-21T02:51:20;61.85;;;26.27;;
42124;SDS011;27787;44.594;11.046;2023-02-21T02:54:05;73.32;;;30.73;;
42124;SDS011;27787;44.594;11.046;2023-02-21T02:56:50;65.68;;;29.10;;
42124;SDS011;27787;44.594;11.046;2023-02-21T02:59:34;62.95;;;26.60;;
42124;SDS011;27787;44.594;11.046;2023-02-21T03:05:53;58.03;;;25.67;;
42124;SDS011;27787;44.594;11.046;2023-02-21T03:08:24;66.18;;;26.80;;
42124;SDS011;27787;44.594;11.046;2023-02-21T03:11:17;63.88;;;26.35;;
42124;SDS011;27787;44.594;11.046;2023-02-21T03:17:00;65.90;;;28.45;;
42124;SDS011;27787;44.594;11.046;2023-02-21T03:19:50;67.85;;;28.40;;
42124;SDS011;27787;44.594;11.046;2023-02-21T03:22:37;64.85;;;26.00;;
42124;SDS011;27787;44.594;11.046;2023-02-21T03:25:22;68.85;;;28.13;;
42124;SDS011;27787;44.594;11.046;2023-02-21T03:28:11;61.67;;;26.95;;
42124;SDS011;27787;44.594;11.046;2023-02-21T03:30:58;58.67;;;26.05;;
42124;SDS011;27787;44.594;11.046;2023-02-21T03:33:46;65.15;;;27.15;;
42124;SDS011;27787;44.594;11.046;2023-02-21T03:36:30;59.67;;;26.15;;
42124;SDS011;27787;44.594;11.046;2023-02-21T03:39:16;62.40;;;25.83;;
42124;SDS011;27787;44.594;11.046;2023-02-21T03:42:00;57.35;;;25.77;;
42124;SDS011;27787;44.594;11.046;2023-02-21T03:44:45;63.53;;;25.80;;
42124;SDS011;27787;44.594;11.046;2023-02-21T03:47:29;56.97;;;25.75;;
42124;SDS011;27787;44.594;11.046;2023-02-21T03:50:14;59.70;;;25.92;;
42124;SDS011;27787;44.594;11.046;2023-02-21T03:53:01;62.20;;;26.80;;
42124;SDS011;27787;44.594;11.046;2023-02-21T03:55:47;58.60;;;24.95;;
42124;SDS011;27787;44.594;11.046;2023-02-21T03:58:37;59.15;;;26.38;;
42124;SDS011;27787;44.594;11.046;2023-02-21T04:01:22;64.55;;;25.75;;
42124;SDS011;27787;44.594;11.046;2023-02-21T04:04:08;58.25;;;24.75;;
42124;SDS011;27787;44.594;11.046;2023-02-21T04:06:52;58.70;;;25.58;;
42124;SDS011;27787;44.594;11.046;2023-02-21T04:09:37;63.65;;;24.40;;
42124;SDS011;27787;44.594;11.046;2023-02-21T04:12:23;52.42;;;23.60;;
42124;SDS011;27787;44.594;11.046;2023-02-21T04:15:09;59.97;;;25.02;;
42124;SDS011;27787;44.594;11.046;2023-02-21T04:20:38;55.35;;;24.42;;
42124;SDS011;27787;44.594;11.046;2023-02-21T04:23:26;57.83;;;24.38;;
42124;SDS011;27787;44.594;11.046;2023-02-21T04:26:12;52.75;;;25.17;;
42124;SDS011;27787;44.594;11.046;2023-02-21T04:29:02;59.00;;;24.08;;
42124;SDS011;27787;44.594;11.046;2023-02-21T04:31:46;58.50;;;25.05;;
42124;SDS011;27787;44.594;11.046;2023-02-21T04:34:34;57.05;;;24.88;;
42124;SDS011;27787;44.594;11.046;2023-02-21T04:37:18;54.70;;;22.63;;
42124;SDS011;27787;44.594;11.046;2023-02-21T04:40:03;54.97;;;24.37;;
42124;SDS011;27787;44.594;11.046;2023-02-21T04:42:51;51.38;;;23.05;;
42124;SDS011;27787;44.594;11.046;2023-02-21T04:45:35;54.05;;;24.58;;
42124;SDS011;27787;44.594;11.046;2023-02-21T04:48:19;52.03;;;24.17;;
42124;SDS011;27787;44.594;11.046;2023-02-21T04:51:04;52.53;;;23.33;;
42124;SDS011;27787;44.594;11.046;2023-02-21T04:53:48;54.13;;;23.75;;
42124;SDS011;27787;44.594;11.046;2023-02-21T04:56:33;53.70;;;23.03;;
42124;SDS011;27787;44.594;11.046;2023-02-21T04:59:17;50.08;;;24.02;;
42124;SDS011;27787;44.594;11.046;2023-02-21T05:02:02;52.00;;;24.70;;
42124;SDS011;27787;44.594;11.046;2023-02-21T05:04:49;54.92;;;24.27;;
42124;SDS011;27787;44.594;11.046;2023-02-21T05:07:33;56.58;;;23.88;;
42124;SDS011;27787;44.594;11.046;2023-02-21T05:10:17;59.35;;;26.02;;
42124;SDS011;27787;44.594;11.046;2023-02-21T05:13:01;62.92;;;26.50;;
42124;SDS011;27787;44.594;11.046;2023-02-21T05:15:45;58.17;;;25.40;;
42124;SDS011;27787;44.594;11.046;2023-02-21T05:18:29;59.33;;;26.92;;
42124;SDS011;27787;44.594;11.046;2023-02-21T05:21:14;60.70;;;26.02;;
42124;SDS011;27787;44.594;11.046;2023-02-21T05:23:58;63.45;;;24.75;;
42124;SDS011;27787;44.594;11.046;2023-02-21T05:26:42;61.55;;;23.75;;
42124;SDS011;27787;44.594;11.046;2023-02-21T05:29:26;53.67;;;22.38;;
42124;SDS011;27787;44.594;11.046;2023-02-21T05:32:10;61.45;;;26.00;;
42124;SDS011;27787;44.594;11.046;2023-02-21T05:34:54;56.38;;;24.80;;
42124;SDS011;27787;44.594;11.046;2023-02-21T05:37:39;64.97;;;25.58;;
42124;SDS011;27787;44.594;11.046;2023-02-21T05:40:23;63.15;;;26.00;;
42124;SDS011;27787;44.594;11.046;2023-02-21T05:43:06;66.97;;;27.08;;
42124;SDS011;27787;44.594;11.046;2023-02-21T05:45:51;59.83;;;24.77;;
42124;SDS011;27787;44.594;11.046;2023-02-21T05:48:35;57.13;;;24.58;;
42124;SDS011;27787;44.594;11.046;2023-02-21T05:51:19;55.70;;;24.00;;
42124;SDS011;27787;44.594;11.046;2023-02-21T05:54:03;56.97;;;23.65;;
42124;SDS011;27787;44.594;11.046;2023-02-21T05:56:50;55.25;;;24.08;;
42124;SDS011;27787;44.594;11.046;2023-02-21T05:59:36;79.18;;;25.58;;
42124;SDS011;27787;44.594;11.046;2023-02-21T06:02:20;59.35;;;23.38;;
42124;SDS011;27787;44.594;11.046;2023-02-21T06:05:04;58.33;;;24.27;;
42124;SDS011;27787;44.594;11.046;2023-02-21T06:07:49;64.18;;;24.40;;
42124;SDS011;27787;44.594;11.046;2023-02-21T06:10:34;58.95;;;24.40;;
42124;SDS011;27787;44.594;11.046;2023-02-21T06:13:18;53.25;;;22.65;;
42124;SDS011;27787;44.594;11.046;2023-02-21T06:16:03;56.30;;;24.65;;
42124;SDS011;27787;44.594;11.046;2023-02-21T06:18:48;53.75;;;23.20;;
42124;SDS011;27787;44.594;11.046;2023-02-21T06:21:34;60.75;;;23.58;;
42124;SDS011;27787;44.594;11.046;2023-02-21T06:24:19;51.05;;;21.70;;
42124;SDS011;27787;44.594;11.046;2023-02-21T06:27:03;59.08;;;24.27;;
42124;SDS011;27787;44.594;11.046;2023-02-21T06:29:47;60.38;;;22.77;;
42124;SDS011;27787;44.594;11.046;2023-02-21T06:32:31;59.65;;;26.10;;
42124;SDS011;27787;44.594;11.046;2023-02-21T06:35:15;53.47;;;23.55;;
42124;SDS011;27787;44.594;11.046;2023-02-21T06:37:59;61.88;;;24.17;;
42124;SDS011;27787;44.594;11.046;2023-02-21T06:40:43;56.47;;;24.02;;
42124;SDS011;27787;44.594;11.046;2023-02-21T06:43:27;59.25;;;23.77;;
42124;SDS011;27787;44.594;11.046;2023-02-21T06:46:18;56.83;;;24.38;;
42124;SDS011;27787;44.594;11.046;2023-02-21T06:49:04;51.22;;;22.60;;
42124;SDS011;27787;44.594;11.046;2023-02-21T06:51:48;60.88;;;24.45;;
42124;SDS011;27787;44.594;11.046;2023-02-21T06:54:33;60.03;;;23.77;;
42124;SDS011;27787;44.594;11.046;2023-02-21T06:57:17;62.30;;;24.33;;
42124;SDS011;27787;44.594;11.046;2023-02-21T07:00:03;57.40;;;24.58;;
42124;SDS011;27787;44.594;11.046;2023-02-21T07:05:33;63.03;;;26.00;;
42124;SDS011;27787;44.594;11.046;2023-02-21T07:08:18;67.00;;;26.88;;
42124;SDS011;27787;44.594;11.046;2023-02-21T07:11:03;61.17;;;27.02;;
42124;SDS011;27787;44.594;11.046;2023-02-21T07:13:49;56.00;;;25.00;;
42124;SDS011;27787;44.594;11.046;2023-02-21T07:16:34;73.50;;;27.08;;
42124;SDS011;27787;44.594;11.046;2023-02-21T07:19:18;63.20;;;26.45;;
42124;SDS011;27787;44.594;11.046;2023-02-21T07:22:02;56.97;;;24.23;;
42124;SDS011;27787;44.594;11.046;2023-02-21T07:24:47;55.50;;;22.88;;
42124;SDS011;27787;44.594;11.046;2023-02-21T07:27:31;54.42;;;24.85;;
42124;SDS011;27787;44.594;11.046;2023-02-21T07:30:15;59.13;;;23.55;;
42124;SDS011;27787;44.594;11.046;2023-02-21T07:32:59;50.15;;;22.85;;
42124;SDS011;27787;44.594;11.046;2023-02-21T07:35:43;53.58;;;23.67;;
42124;SDS011;27787;44.594;11.046;2023-02-21T07:38:29;53.90;;;23.58;;
42124;SDS011;27787;44.594;11.046;2023-02-21T07:41:16;65.25;;;26.08;;
42124;SDS011;27787;44.594;11.046;2023-02-21T07:44:00;54.88;;;23.30;;
42124;SDS011;27787;44.594;11.046;2023-02-21T07:46:44;62.05;;;26.23;;
42124;SDS011;27787;44.594;11.046;2023-02-21T07:49:29;53.70;;;23.95;;
42124;SDS011;27787;44.594;11.046;2023-02-21T07:52:13;59.53;;;24.38;;
42124;SDS011;27787;44.594;11.046;2023-02-21T07:54:57;65.13;;;25.88;;
42124;SDS011;27787;44.594;11.046;2023-02-21T07:57:42;63.20;;;24.40;;
42124;SDS011;27787;44.594;11.046;2023-02-21T08:00:26;64.68;;;25.85;;
42124;SDS011;27787;44.594;11.046;2023-02-21T08:03:13;52.35;;;25.13;;
42124;SDS011;27787;44.594;11.046;2023-02-21T08:05:58;61.65;;;26.80;;
42124;SDS011;27787;44.594;11.046;2023-02-21T08:08:42;64.23;;;29.47;;
42124;SDS011;27787;44.594;11.046;2023-02-21T08:11:27;75.55;;;31.30;;
42124;SDS011;27787;44.594;11.046;2023-02-21T08:14:11;79.07;;;30.67;;
42124;SDS011;27787;44.594;11.046;2023-02-21T08:16:55;71.63;;;30.50;;
42124;SDS011;27787;44.594;11.046;2023-02-21T08:19:39;67.82;;;30.60;;
42124;SDS011;27787;44.594;11.046;2023-02-21T08:22:24;73.25;;;32.30;;
42124;SDS011;27787;44.594;11.046;2023-02-21T08:25:09;64.07;;;30.13;;
42124;SDS011;27787;44.594;11.046;2023-02-21T08:27:57;77.13;;;33.67;;
42124;SDS011;27787;44.594;11.046;2023-02-21T08:30:41;77.68;;;33.67;;
42124;SDS011;27787;44.594;11.046;2023-02-21T08:33:25;76.07;;;34.17;;
42124;SDS011;27787;44.594;11.046;2023-02-21T08:36:09;76.43;;;33.22;;
42124;SDS011;27787;44.594;11.046;2023-02-21T08:38:53;79.32;;;33.35;;
42124;SDS011;27787;44.594;11.046;2023-02-21T08:41:41;79.55;;;33.65;;
42124;SDS011;27787;44.594;11.046;2023-02-21T08:44:27;80.50;;;34.35;;
42124;SDS011;27787;44.594;11.046;2023-02-21T08:47:12;80.78;;;32.20;;
42124;SDS011;27787;44.594;11.046;2023-02-21T08:49:57;77.40;;;34.15;;
42124;SDS011;27787;44.594;11.046;2023-02-21T08:52:41;78.07;;;34.15;;
42124;SDS011;27787;44.594;11.046;2023-02-21T08:55:28;84.68;;;33.97;;
42124;SDS011;27787;44.594;11.046;2023-02-21T08:58:12;80.82;;;33.80;;
42124;SDS011;27787;44.594;11.046;2023-02-21T09:00:56;88.78;;;34.17;;
42124;SDS011;27787;44.594;11.046;2023-02-21T09:03:40;83.82;;;36.40;;
42124;SDS011;27787;44.594;11.046;2023-02-21T09:06:25;88.85;;;35.72;;
42124;SDS011;27787;44.594;11.046;2023-02-21T09:09:09;86.28;;;35.20;;
42124;SDS011;27787;44.594;11.046;2023-02-21T09:11:52;98.50;;;36.40;;
42124;SDS011;27787;44.594;11.046;2023-02-21T09:14:37;86.38;;;34.70;;
42124;SDS011;27787;44.594;11.046;2023-02-21T09:17:23;85.40;;;34.47;;
42124;SDS011;27787;44.594;11.046;2023-02-21T09:20:08;95.70;;;36.72;;
42124;SDS011;27787;44.594;11.046;2023-02-21T09:22:58;85.45;;;35.10;;
42124;SDS011;27787;44.594;11.046;2023-02-21T09:25:42;87.82;;;35.72;;
42124;SDS011;27787;44.594;11.046;2023-02-21T09:28:26;86.95;;;35.15;;
42124;SDS011;27787;44.594;11.046;2023-02-21T09:31:12;91.50;;;36.40;;
42124;SDS011;27787;44.594;11.046;2023-02-21T09:33:56;100.85;;;36.60;;
42124;SDS011;27787;44.594;11.046;2023-02-21T09:36:40;104.15;;;38.85;;
42124;SDS011;27787;44.594;11.046;2023-02-21T09:39:24;90.97;;;36.75;;
42124;SDS011;27787;44.594;11.046;2023-02-21T09:42:09;96.07;;;38.47;;
42124;SDS011;27787;44.594;11.046;2023-02-21T09:45:00;93.70;;;37.50;;
42124;SDS011;27787;44.594;11.046;2023-02-21T09:47:45;90.88;;;37.53;;
42124;SDS011;27787;44.594;11.046;2023-02-21T09:50:39;94.72;;;40.90;;
42124;SDS011;27787;44.594;11.046;2023-02-21T09:53:31;89.82;;;37.28;;
42124;SDS011;27787;44.594;11.046;2023-02-21T09:56:26;111.85;;;40.70;;
42124;SDS011;27787;44.594;11.046;2023-02-21T09:59:12;103.20;;;37.78;;
42124;SDS011;27787;44.594;11.046;2023-02-21T10:10:37;93.80;;;38.47;;
42124;SDS011;27787;44.594;11.046;2023-02-21T10:16:41;87.82;;;35.10;;
42124;SDS011;27787;44.594;11.046;2023-02-21T10:19:36;102.55;;;36.38;;
42124;SDS011;27787;44.594;11.046;2023-02-21T10:22:27;100.03;;;38.13;;
42124;SDS011;27787;44.594;11.046;2023-02-21T10:25:22;89.43;;;36.55;;
42124;SDS011;27787;44.594;11.046;2023-02-21T10:28:16;103.15;;;37.72;;
42124;SDS011;27787;44.594;11.046;2023-02-21T10:31:07;94.10;;;35.78;;
42124;SDS011;27787;44.594;11.046;2023-02-21T10:33:59;93.22;;;37.17;;
42124;SDS011;27787;44.594;11.046;2023-02-21T10:36:46;92.70;;;35.13;;
42124;SDS011;27787;44.594;11.046;2023-02-21T10:39:45;90.78;;;35.22;;
42124;SDS011;27787;44.594;11.046;2023-02-21T10:42:37;105.03;;;37.72;;
42124;SDS011;27787;44.594;11.046;2023-02-21T10:45:31;85.40;;;34.25;;
42124;SDS011;27787;44.594;11.046;2023-02-21T10:48:20;93.18;;;37.55;;
42124;SDS011;27787;44.594;11.046;2023-02-21T10:51:14;93.63;;;37.70;;
42124;SDS011;27787;44.594;11.046;2023-02-21T10:54:21;91.95;;;36.78;;
42124;SDS011;27787;44.594;11.046;2023-02-21T10:57:07;92.45;;;34.78;;
42124;SDS011;27787;44.594;11.046;2023-02-21T10:59:54;97.63;;;36.33;;
42124;SDS011;27787;44.594;11.046;2023-02-21T11:02:39;100.88;;;38.92;;
42124;SDS011;27787;44.594;11.046;2023-02-21T11:05:27;94.00;;;35.88;;
42124;SDS011;27787;44.594;11.046;2023-02-21T11:08:11;92.40;;;36.78;;
42124;SDS011;27787;44.594;11.046;2023-02-21T11:10:57;97.10;;;37.45;;
42124;SDS011;27787;44.594;11.046;2023-02-21T11:13:41;94.18;;;36.42;;
42124;SDS011;27787;44.594;11.046;2023-02-21T11:16:27;92.43;;;37.08;;
42124;SDS011;27787;44.594;11.046;2023-02-21T11:19:15;89.03;;;35.50;;
42124;SDS011;27787;44.594;11.046;2023-02-21T11:21:59;100.90;;;37.00;;
42124;SDS011;27787;44.594;11.046;2023-02-21T11:27:37;96.18;;;36.35;;
42124;SDS011;27787;44.594;11.046;2023-02-21T11:30:21;90.33;;;35.67;;
42124;SDS011;27787;44.594;11.046;2023-02-21T11:33:06;88.07;;;34.78;;
42124;SDS011;27787;44.594;11.046;2023-02-21T11:35:52;88.10;;;33.97;;
42124;SDS011;27787;44.594;11.046;2023-02-21T11:38:59;90.95;;;33.83;;
42124;SDS011;27787;44.594;11.046;2023-02-21T11:42:22;85.82;;;34.28;;
42124;SDS011;27787;44.594;11.046;2023-02-21T11:48:03;87.63;;;33.40;;
42124;SDS011;27787;44.594;11.046;2023-02-21T11:50:49;80.47;;;33.75;;
42124;SDS011;27787;44.594;11.046;2023-02-21T11:53:38;84.30;;;33.58;;
42124;SDS011;27787;44.594;11.046;2023-02-21T12:17:28;77.00;;;30.38;;
42124;SDS011;27787;44.594;11.046;2023-02-21T12:26:55;72.43;;;30.08;;
42124;SDS011;27787;44.594;11.046;2023-02-21T12:32:47;68.63;;;27.60;;
42124;SDS011;27787;44.594;11.046;2023-02-21T12:35:53;59.85;;;27.02;;
42124;SDS011;27787;44.594;11.046;2023-02-21T12:48:11;44.67;;;19.65;;
42124;SDS011;27787;44.594;11.046;2023-02-21T12:51:09;45.45;;;20.00;;
42124;SDS011;27787;44.594;11.046;2023-02-21T12:54:02;38.88;;;18.60;;
42124;SDS011;27787;44.594;11.046;2023-02-21T13:00:53;52.35;;;21.98;;
42124;SDS011;27787;44.594;11.046;2023-02-21T13:07:33;51.40;;;21.13;;
42124;SDS011;27787;44.594;11.046;2023-02-21T13:10:30;39.67;;;17.17;;
42124;SDS011;27787;44.594;11.046;2023-02-21T13:13:24;36.67;;;17.30;;
42124;SDS011;27787;44.594;11.046;2023-02-21T13:16:12;39.75;;;18.63;;
42124;SDS011;27787;44.594;11.046;2023-02-21T13:18:59;38.85;;;17.95;;
42124;SDS011;27787;44.594;11.046;2023-02-21T13:21:49;36.30;;;17.58;;
42124;SDS011;27787;44.594;11.046;2023-02-21T13:24:55;44.63;;;18.65;;
42124;SDS011;27787;44.594;11.046;2023-02-21T13:30:38;38.78;;;17.95;;
42124;SDS011;27787;44.594;11.046;2023-02-21T13:36:31;38.15;;;16.15;;
42124;SDS011;27787;44.594;11.046;2023-02-21T13:39:28;38.38;;;17.08;;
42124;SDS011;27787;44.594;11.046;2023-02-21T13:42:20;35.38;;;16.40;;
42124;SDS011;27787;44.594;11.046;2023-02-21T13:50:44;32.28;;;14.00;;
42124;SDS011;27787;44.594;11.046;2023-02-21T13:53:31;32.88;;;14.63;;
42124;SDS011;27787;44.594;11.046;2023-02-21T13:56:42;34.40;;;14.57;;
42124;SDS011;27787;44.594;11.046;2023-02-21T14:02:17;27.67;;;13.82;;
42124;SDS011;27787;44.594;11.046;2023-02-21T14:05:06;31.65;;;13.43;;
42124;SDS011;27787;44.594;11.046;2023-02-21T14:08:04;23.10;;;11.30;;
42124;SDS011;27787;44.594;11.046;2023-02-21T14:10:57;28.77;;;12.65;;
42124;SDS011;27787;44.594;11.046;2023-02-21T14:14:01;23.85;;;11.80;;
42124;SDS011;27787;44.594;11.046;2023-02-21T14:17:10;33.53;;;12.48;;
42124;SDS011;27787;44.594;11.046;2023-02-21T14:19:56;29.23;;;13.57;;
42124;SDS011;27787;44.594;11.046;2023-02-21T14:22:43;29.92;;;12.63;;
42124;SDS011;27787;44.594;11.046;2023-02-21T14:25:27;27.90;;;13.07;;
42124;SDS011;27787;44.594;11.046;2023-02-21T14:31:53;28.15;;;12.18;;
42124;SDS011;27787;44.594;11.046;2023-02-21T14:37:37;26.23;;;12.13;;
42124;SDS011;27787;44.594;11.046;2023-02-21T14:40:32;27.58;;;12.30;;
42124;SDS011;27787;44.594;11.046;2023-02-21T14:46:49;25.63;;;13.02;;
42124;SDS011;27787;44.594;11.046;2023-02-21T15:02:25;27.00;;;12.93;;
42124;SDS011;27787;44.594;11.046;2023-02-21T15:05:22;28.63;;;13.82;;
42124;SDS011;27787;44.594;11.046;2023-02-21T15:08:15;29.13;;;14.80;;
42124;SDS011;27787;44.594;11.046;2023-02-21T15:11:02;36.55;;;16.70;;
42124;SDS011;27787;44.594;11.046;2023-02-21T15:14:21;35.28;;;16.50;;
42124;SDS011;27787;44.594;11.046;2023-02-21T15:17:12;41.28;;;18.45;;
42124;SDS011;27787;44.594;11.046;2023-02-21T15:20:09;37.78;;;17.67;;
42124;SDS011;27787;44.594;11.046;2023-02-21T15:23:15;37.10;;;17.45;;
42124;SDS011;27787;44.594;11.046;2023-02-21T15:29:13;37.63;;;18.37;;
42124;SDS011;27787;44.594;11.046;2023-02-21T15:31:59;40.58;;;18.58;;
42124;SDS011;27787;44.594;11.046;2023-02-21T15:34:43;40.15;;;18.42;;
42124;SDS011;27787;44.594;11.046;2023-02-21T15:37:29;41.58;;;18.63;;
42124;SDS011;27787;44.594;11.046;2023-02-21T15:40:20;42.38;;;18.45;;
42124;SDS011;27787;44.594;11.046;2023-02-21T15:43:06;33.72;;;18.48;;
42124;SDS011;27787;44.594;11.046;2023-02-21T15:45:53;42.60;;;18.27;;
42124;SDS011;27787;44.594;11.046;2023-02-21T15:48:39;41.40;;;18.48;;
42124;SDS011;27787;44.594;11.046;2023-02-21T15:51:24;40.75;;;18.98;;
42124;SDS011;27787;44.594;11.046;2023-02-21T15:54:19;39.58;;;19.00;;
42124;SDS011;27787;44.594;11.046;2023-02-21T16:00:16;41.70;;;20.27;;
42124;SDS011;27787;44.594;11.046;2023-02-21T16:06:24;51.42;;;21.08;;
42124;SDS011;27787;44.594;11.046;2023-02-21T16:12:06;48.20;;;21.65;;
42124;SDS011;27787;44.594;11.046;2023-02-21T16:15:20;47.85;;;20.60;;
42124;SDS011;27787;44.594;11.046;2023-02-21T16:18:16;50.70;;;20.75;;
42124;SDS011;27787;44.594;11.046;2023-02-21T16:21:03;50.28;;;20.23;;
42124;SDS011;27787;44.594;11.046;2023-02-21T16:23:50;48.10;;;20.88;;
42124;SDS011;27787;44.594;11.046;2023-02-21T16:26:34;50.60;;;22.33;;
42124;SDS011;27787;44.594;11.046;2023-02-21T16:29:18;55.10;;;21.45;;
42124;SDS011;27787;44.594;11.046;2023-02-21T16:32:02;43.00;;;20.33;;
42124;SDS011;27787;44.594;11.046;2023-02-21T16:34:47;51.00;;;21.30;;
42124;SDS011;27787;44.594;11.046;2023-02-21T16:37:37;48.35;;;22.05;;
42124;SDS011;27787;44.594;11.046;2023-02-21T16:40:27;55.50;;;20.77;;
42124;SDS011;27787;44.594;11.046;2023-02-21T16:43:23;47.13;;;20.15;;
42124;SDS011;27787;44.594;11.046;2023-02-21T16:48:53;47.22;;;21.40;;
42124;SDS011;27787;44.594;11.046;2023-02-21T16:51:38;48.88;;;21.67;;
42124;SDS011;27787;44.594;11.046;2023-02-21T16:54:28;56.88;;;24.30;;
42124;SDS011;27787;44.594;11.046;2023-02-21T16:57:12;50.78;;;22.08;;
42124;SDS011;27787;44.594;11.046;2023-02-21T16:59:56;47.38;;;21.15;;
42124;SDS011;27787;44.594;11.046;2023-02-21T17:02:41;47.58;;;21.35;;
42124;SDS011;27787;44.594;11.046;2023-02-21T17:05:25;48.67;;;21.25;;
42124;SDS011;27787;44.594;11.046;2023-02-21T17:08:09;44.40;;;21.73;;
42124;SDS011;27787;44.594;11.046;2023-02-21T17:10:55;49.10;;;21.50;;
42124;SDS011;27787;44.594;11.046;2023-02-21T17:13:40;43.00;;;19.73;;
42124;SDS011;27787;44.594;11.046;2023-02-21T17:16:24;41.92;;;20.75;;
42124;SDS011;27787;44.594;11.046;2023-02-21T17:19:08;48.25;;;20.13;;
42124;SDS011;27787;44.594;11.046;2023-02-21T17:21:54;40.53;;;20.10;;
42124;SDS011;27787;44.594;11.046;2023-02-21T17:24:41;47.17;;;20.35;;
42124;SDS011;27787;44.594;11.046;2023-02-21T17:27:25;51.03;;;21.57;;
42124;SDS011;27787;44.594;11.046;2023-02-21T17:30:10;43.97;;;21.05;;
42124;SDS011;27787;44.594;11.046;2023-02-21T17:32:55;43.85;;;19.42;;
42124;SDS011;27787;44.594;11.046;2023-02-21T17:35:39;44.60;;;18.83;;
42124;SDS011;27787;44.594;11.046;2023-02-21T17:38:24;40.40;;;18.17;;
42124;SDS011;27787;44.594;11.046;2023-02-21T17:41:08;41.22;;;20.48;;
42124;SDS011;27787;44.594;11.046;2023-02-21T17:43:52;34.63;;;18.42;;
42124;SDS011;27787;44.594;11.046;2023-02-21T17:46:36;38.33;;;17.20;;
42124;SDS011;27787;44.594;11.046;2023-02-21T17:49:22;41.83;;;19.02;;
42124;SDS011;27787;44.594;11.046;2023-02-21T17:52:08;40.75;;;18.17;;
42124;SDS011;27787;44.594;11.046;2023-02-21T17:54:54;33.47;;;16.85;;
42124;SDS011;27787;44.594;11.046;2023-02-21T17:57:39;37.35;;;17.73;;
42124;SDS011;27787;44.594;11.046;2023-02-21T18:00:26;35.63;;;16.73;;
42124;SDS011;27787;44.594;11.046;2023-02-21T18:03:12;38.47;;;17.70;;
42124;SDS011;27787;44.594;11.046;2023-02-21T18:05:57;46.40;;;16.73;;
42124;SDS011;27787;44.594;11.046;2023-02-21T18:08:42;39.33;;;17.17;;
42124;SDS011;27787;44.594;11.046;2023-02-21T18:11:30;33.92;;;17.08;;
42124;SDS011;27787;44.594;11.046;2023-02-21T18:14:15;36.03;;;16.50;;
42124;SDS011;27787;44.594;11.046;2023-02-21T18:17:00;44.15;;;18.05;;
42124;SDS011;27787;44.594;11.046;2023-02-21T18:19:45;39.10;;;18.47;;
42124;SDS011;27787;44.594;11.046;2023-02-21T18:22:29;38.72;;;17.00;;
42124;SDS011;27787;44.594;11.046;2023-02-21T18:25:13;38.72;;;18.15;;
42124;SDS011;27787;44.594;11.046;2023-02-21T18:28:01;38.88;;;18.33;;
42124;SDS011;27787;44.594;11.046;2023-02-21T18:30:46;34.80;;;17.67;;
42124;SDS011;27787;44.594;11.046;2023-02-21T18:33:31;44.40;;;18.35;;
42124;SDS011;27787;44.594;11.046;2023-02-21T18:36:15;44.25;;;19.88;;
42124;SDS011;27787;44.594;11.046;2023-02-21T18:39:00;43.40;;;18.85;;
42124;SDS011;27787;44.594;11.046;2023-02-21T18:41:44;48.75;;;21.63;;
42124;SDS011;27787;44.594;11.046;2023-02-21T18:44:30;45.22;;;20.85;;
42124;SDS011;27787;44.594;11.046;2023-02-21T18:47:15;58.45;;;21.70;;
42124;SDS011;27787;44.594;11.046;2023-02-21T18:50:00;54.40;;;22.25;;
42124;SDS011;27787;44.594;11.046;2023-02-21T18:52:44;49.85;;;21.30;;